sensor_id;sensor_type;location;lat;lon;timestamp;P1;durP1;ratioP1;P2;durP2;ratioP2
36411;SDS011;22445;52.100;5.176;2023-02-15T00:01:45;35.30;;;19.23;;
36411;SDS011;22445;52.100;5.176;2023-02-15T00:04:15;33.33;;;18.98;;
36411;SDS011;22445;52.100;5.176;2023-02-15T00:06:42;38.92;;;22.90;;
36411;SDS011;22445;52.100;5.176;2023-02-15T00:09:08;39.72;;;21.27;;
36411;SDS011;22445;52.100;5.176;2023-02-15T00:11:35;39.22;;;21.52;;
36411;SDS011;22445;52.100;5.176;2023-02-15T00:14:19;36.35;;;19.55;;
36411;SDS011;22445;52.100;5.176;2023-02-15T00:16:49;38.80;;;20.67;;
36411;SDS011;22445;52.100;5.176;2023-02-15T00:19:17;34.97;;;19.90;;
36411;SDS011;22445;52.100;5.176;2023-02-15T00:21:43;36.47;;;20.52;;
36411;SDS011;22445;52.100;5.176;2023-02-15T00:24:10;41.10;;;23.67;;
36411;SDS011;22445;52.100;5.176;2023-02-15T00:26:40;41.75;;;22.38;;
36411;SDS011;22445;52.100;5.176;2023-02-15T00:29:06;39.58;;;21.10;;
36411;SDS011;22445;52.100;5.176;2023-02-15T00:31:33;40.53;;;21.23;;
36411;SDS011;22445;52.100;5.176;2023-02-15T00:34:03;44.70;;;21.48;;
36411;SDS011;22445;52.100;5.176;2023-02-15T00:36:38;32.10;;;19.48;;
36411;SDS011;22445;52.100;5.176;2023-02-15T00:39:04;32.17;;;19.38;;
36411;SDS011;22445;52.100;5.176;2023-02-15T00:41:31;37.10;;;21.67;;
36411;SDS011;22445;52.100;5.176;2023-02-15T00:43:57;37.63;;;22.08;;
36411;SDS011;22445;52.100;5.176;2023-02-15T00:46:22;37.03;;;21.98;;
36411;SDS011;22445;52.100;5.176;2023-02-15T00:48:48;36.47;;;20.40;;
36411;SDS011;22445;52.100;5.176;2023-02-15T00:51:13;38.50;;;21.20;;
36411;SDS011;22445;52.100;5.176;2023-02-15T00:53:39;34.13;;;18.88;;
36411;SDS011;22445;52.100;5.176;2023-02-15T00:56:04;39.85;;;20.38;;
36411;SDS011;22445;52.100;5.176;2023-02-15T00:58:30;30.50;;;18.25;;
36411;SDS011;22445;52.100;5.176;2023-02-15T01:01:01;31.77;;;18.38;;
36411;SDS011;22445;52.100;5.176;2023-02-15T01:03:32;36.20;;;18.90;;
36411;SDS011;22445;52.100;5.176;2023-02-15T01:05:58;35.28;;;19.17;;
36411;SDS011;22445;52.100;5.176;2023-02-15T01:08:24;38.35;;;19.67;;
36411;SDS011;22445;52.100;5.176;2023-02-15T01:10:50;38.70;;;20.35;;
36411;SDS011;22445;52.100;5.176;2023-02-15T01:13:15;40.53;;;21.20;;
36411;SDS011;22445;52.100;5.176;2023-02-15T01:15:42;37.03;;;19.65;;
36411;SDS011;22445;52.100;5.176;2023-02-15T01:18:08;36.22;;;20.08;;
36411;SDS011;22445;52.100;5.176;2023-02-15T01:20:35;38.05;;;20.00;;
36411;SDS011;22445;52.100;5.176;2023-02-15T01:23:04;38.92;;;18.50;;
36411;SDS011;22445;52.100;5.176;2023-02-15T01:25:30;34.17;;;19.80;;
36411;SDS011;22445;52.100;5.176;2023-02-15T01:27:56;35.80;;;19.88;;
36411;SDS011;22445;52.100;5.176;2023-02-15T01:30:21;36.15;;;21.13;;
36411;SDS011;22445;52.100;5.176;2023-02-15T01:32:47;39.88;;;22.08;;
36411;SDS011;22445;52.100;5.176;2023-02-15T01:35:12;44.90;;;22.58;;
36411;SDS011;22445;52.100;5.176;2023-02-15T01:37:38;36.03;;;20.13;;
36411;SDS011;22445;52.100;5.176;2023-02-15T01:40:04;45.85;;;22.92;;
36411;SDS011;22445;52.100;5.176;2023-02-15T01:42:32;45.92;;;24.50;;
36411;SDS011;22445;52.100;5.176;2023-02-15T01:45:43;42.65;;;22.73;;
36411;SDS011;22445;52.100;5.176;2023-02-15T01:47:52;50.67;;;25.58;;
36411;SDS011;22445;52.100;5.176;2023-02-15T01:53:24;48.67;;;26.25;;
36411;SDS011;22445;52.100;5.176;2023-02-15T01:58:42;52.25;;;26.80;;
36411;SDS011;22445;52.100;5.176;2023-02-15T02:01:08;56.28;;;28.55;;
36411;SDS011;22445;52.100;5.176;2023-02-15T02:06:36;55.03;;;29.75;;
36411;SDS011;22445;52.100;5.176;2023-02-15T02:09:03;60.28;;;30.45;;
36411;SDS011;22445;52.100;5.176;2023-02-15T02:11:29;68.55;;;30.15;;
36411;SDS011;22445;52.100;5.176;2023-02-15T02:13:54;63.47;;;30.25;;
36411;SDS011;22445;52.100;5.176;2023-02-15T02:19:52;62.83;;;30.60;;
36411;SDS011;22445;52.100;5.176;2023-02-15T02:41:27;46.13;;;23.05;;
36411;SDS011;22445;52.100;5.176;2023-02-15T02:44:19;44.30;;;22.90;;
36411;SDS011;22445;52.100;5.176;2023-02-15T02:49:39;45.42;;;23.63;;
36411;SDS011;22445;52.100;5.176;2023-02-15T02:52:07;48.15;;;25.17;;
36411;SDS011;22445;52.100;5.176;2023-02-15T02:58:35;63.25;;;27.95;;
36411;SDS011;22445;52.100;5.176;2023-02-15T03:01:21;52.53;;;27.20;;
36411;SDS011;22445;52.100;5.176;2023-02-15T03:03:51;53.30;;;26.88;;
36411;SDS011;22445;52.100;5.176;2023-02-15T03:06:20;57.60;;;26.92;;
36411;SDS011;22445;52.100;5.176;2023-02-15T03:08:53;57.53;;;28.55;;
36411;SDS011;22445;52.100;5.176;2023-02-15T03:11:23;61.85;;;29.83;;
36411;SDS011;22445;52.100;5.176;2023-02-15T03:13:49;53.85;;;27.13;;
36411;SDS011;22445;52.100;5.176;2023-02-15T03:16:15;58.58;;;29.48;;
36411;SDS011;22445;52.100;5.176;2023-02-15T03:18:52;70.15;;;31.70;;
36411;SDS011;22445;52.100;5.176;2023-02-15T03:21:47;60.50;;;29.75;;
36411;SDS011;22445;52.100;5.176;2023-02-15T03:24:31;67.90;;;31.10;;
36411;SDS011;22445;52.100;5.176;2023-02-15T03:26:59;67.55;;;29.48;;
36411;SDS011;22445;52.100;5.176;2023-02-15T03:29:26;56.00;;;28.40;;
36411;SDS011;22445;52.100;5.176;2023-02-15T03:32:03;68.13;;;33.45;;
36411;SDS011;22445;52.100;5.176;2023-02-15T03:34:31;53.75;;;26.65;;
36411;SDS011;22445;52.100;5.176;2023-02-15T03:37:05;56.58;;;28.52;;
36411;SDS011;22445;52.100;5.176;2023-02-15T03:40:02;50.03;;;25.00;;
36411;SDS011;22445;52.100;5.176;2023-02-15T03:43:12;57.65;;;28.10;;
36411;SDS011;22445;52.100;5.176;2023-02-15T03:45:45;50.58;;;26.52;;
36411;SDS011;22445;52.100;5.176;2023-02-15T03:48:26;59.88;;;29.30;;
36411;SDS011;22445;52.100;5.176;2023-02-15T03:50:56;63.40;;;32.92;;
36411;SDS011;22445;52.100;5.176;2023-02-15T03:53:43;53.97;;;26.27;;
36411;SDS011;22445;52.100;5.176;2023-02-15T03:56:11;59.42;;;28.33;;
36411;SDS011;22445;52.100;5.176;2023-02-15T03:58:36;61.85;;;30.98;;
36411;SDS011;22445;52.100;5.176;2023-02-15T04:01:34;55.33;;;27.88;;
36411;SDS011;22445;52.100;5.176;2023-02-15T04:04:22;60.85;;;29.50;;
36411;SDS011;22445;52.100;5.176;2023-02-15T04:07:09;56.40;;;28.25;;
36411;SDS011;22445;52.100;5.176;2023-02-15T04:09:34;57.33;;;28.55;;
36411;SDS011;22445;52.100;5.176;2023-02-15T04:12:19;65.57;;;30.65;;
36411;SDS011;22445;52.100;5.176;2023-02-15T04:14:44;59.95;;;28.67;;
36411;SDS011;22445;52.100;5.176;2023-02-15T04:17:28;59.08;;;28.00;;
36411;SDS011;22445;52.100;5.176;2023-02-15T04:19:54;54.17;;;25.83;;
36411;SDS011;22445;52.100;5.176;2023-02-15T04:22:38;54.30;;;27.77;;
36411;SDS011;22445;52.100;5.176;2023-02-15T04:25:23;64.45;;;30.30;;
36411;SDS011;22445;52.100;5.176;2023-02-15T04:27:51;66.65;;;29.08;;
36411;SDS011;22445;52.100;5.176;2023-02-15T04:30:20;55.72;;;28.30;;
36411;SDS011;22445;52.100;5.176;2023-02-15T04:32:47;63.65;;;28.63;;
36411;SDS011;22445;52.100;5.176;2023-02-15T04:35:12;54.40;;;28.17;;
36411;SDS011;22445;52.100;5.176;2023-02-15T04:37:39;56.33;;;28.95;;
36411;SDS011;22445;52.100;5.176;2023-02-15T04:40:06;60.03;;;28.40;;
36411;SDS011;22445;52.100;5.176;2023-02-15T04:42:32;52.13;;;28.30;;
36411;SDS011;22445;52.100;5.176;2023-02-15T04:44:58;51.95;;;25.88;;
36411;SDS011;22445;52.100;5.176;2023-02-15T04:47:23;52.92;;;29.17;;
36411;SDS011;22445;52.100;5.176;2023-02-15T04:49:49;60.88;;;29.98;;
36411;SDS011;22445;52.100;5.176;2023-02-15T04:52:15;61.40;;;29.17;;
36411;SDS011;22445;52.100;5.176;2023-02-15T04:54:42;59.83;;;30.83;;
36411;SDS011;22445;52.100;5.176;2023-02-15T04:57:08;70.53;;;30.70;;
36411;SDS011;22445;52.100;5.176;2023-02-15T04:59:33;67.18;;;31.23;;
36411;SDS011;22445;52.100;5.176;2023-02-15T05:01:59;69.70;;;33.72;;
36411;SDS011;22445;52.100;5.176;2023-02-15T05:04:24;69.72;;;32.70;;
36411;SDS011;22445;52.100;5.176;2023-02-15T05:06:50;74.05;;;31.45;;
36411;SDS011;22445;52.100;5.176;2023-02-15T05:09:16;69.97;;;30.67;;
36411;SDS011;22445;52.100;5.176;2023-02-15T05:11:41;67.93;;;29.92;;
36411;SDS011;22445;52.100;5.176;2023-02-15T05:14:07;68.15;;;31.55;;
36411;SDS011;22445;52.100;5.176;2023-02-15T05:16:32;69.57;;;31.73;;
36411;SDS011;22445;52.100;5.176;2023-02-15T05:18:58;66.43;;;31.60;;
36411;SDS011;22445;52.100;5.176;2023-02-15T05:21:24;58.08;;;28.55;;
36411;SDS011;22445;52.100;5.176;2023-02-15T05:23:49;59.40;;;28.25;;
36411;SDS011;22445;52.100;5.176;2023-02-15T05:26:18;56.22;;;27.90;;
36411;SDS011;22445;52.100;5.176;2023-02-15T05:29:04;65.22;;;29.30;;
36411;SDS011;22445;52.100;5.176;2023-02-15T05:31:30;60.30;;;29.88;;
36411;SDS011;22445;52.100;5.176;2023-02-15T05:33:56;70.20;;;31.30;;
36411;SDS011;22445;52.100;5.176;2023-02-15T05:36:22;70.10;;;31.75;;
36411;SDS011;22445;52.100;5.176;2023-02-15T05:38:47;69.00;;;31.98;;
36411;SDS011;22445;52.100;5.176;2023-02-15T05:41:13;70.53;;;32.95;;
36411;SDS011;22445;52.100;5.176;2023-02-15T05:43:39;63.95;;;31.58;;
36411;SDS011;22445;52.100;5.176;2023-02-15T05:46:04;66.55;;;31.05;;
36411;SDS011;22445;52.100;5.176;2023-02-15T05:48:31;62.30;;;28.52;;
36411;SDS011;22445;52.100;5.176;2023-02-15T05:51:07;72.25;;;31.52;;
36411;SDS011;22445;52.100;5.176;2023-02-15T05:53:35;72.13;;;31.20;;
36411;SDS011;22445;52.100;5.176;2023-02-15T05:56:02;71.50;;;30.67;;
36411;SDS011;22445;52.100;5.176;2023-02-15T05:58:29;65.90;;;30.35;;
36411;SDS011;22445;52.100;5.176;2023-02-15T06:00:59;70.43;;;29.88;;
36411;SDS011;22445;52.100;5.176;2023-02-15T06:03:25;68.97;;;29.20;;
36411;SDS011;22445;52.100;5.176;2023-02-15T06:05:51;72.93;;;32.22;;
36411;SDS011;22445;52.100;5.176;2023-02-15T06:08:17;65.35;;;28.85;;
36411;SDS011;22445;52.100;5.176;2023-02-15T06:10:45;62.95;;;30.25;;
36411;SDS011;22445;52.100;5.176;2023-02-15T06:13:11;66.20;;;30.83;;
36411;SDS011;22445;52.100;5.176;2023-02-15T06:15:36;61.05;;;30.60;;
36411;SDS011;22445;52.100;5.176;2023-02-15T06:18:02;70.70;;;31.58;;
36411;SDS011;22445;52.100;5.176;2023-02-15T06:20:31;72.80;;;32.67;;
36411;SDS011;22445;52.100;5.176;2023-02-15T06:22:57;66.70;;;29.52;;
36411;SDS011;22445;52.100;5.176;2023-02-15T06:25:22;68.72;;;31.25;;
36411;SDS011;22445;52.100;5.176;2023-02-15T06:27:49;63.63;;;29.65;;
36411;SDS011;22445;52.100;5.176;2023-02-15T06:30:15;84.75;;;33.17;;
36411;SDS011;22445;52.100;5.176;2023-02-15T06:32:40;81.45;;;34.72;;
36411;SDS011;22445;52.100;5.176;2023-02-15T06:35:06;82.53;;;34.72;;
36411;SDS011;22445;52.100;5.176;2023-02-15T06:37:32;72.03;;;32.15;;
36411;SDS011;22445;52.100;5.176;2023-02-15T06:39:57;78.93;;;33.78;;
36411;SDS011;22445;52.100;5.176;2023-02-15T06:42:23;69.38;;;31.38;;
36411;SDS011;22445;52.100;5.176;2023-02-15T06:44:49;66.75;;;29.40;;
36411;SDS011;22445;52.100;5.176;2023-02-15T06:47:14;84.18;;;34.20;;
36411;SDS011;22445;52.100;5.176;2023-02-15T06:49:40;77.15;;;34.28;;
36411;SDS011;22445;52.100;5.176;2023-02-15T06:52:05;72.90;;;33.40;;
36411;SDS011;22445;52.100;5.176;2023-02-15T06:54:31;70.25;;;30.83;;
36411;SDS011;22445;52.100;5.176;2023-02-15T06:56:56;71.40;;;31.35;;
36411;SDS011;22445;52.100;5.176;2023-02-15T06:59:22;69.53;;;30.73;;
36411;SDS011;22445;52.100;5.176;2023-02-15T07:01:48;67.75;;;30.48;;
36411;SDS011;22445;52.100;5.176;2023-02-15T07:04:14;68.13;;;34.45;;
36411;SDS011;22445;52.100;5.176;2023-02-15T07:06:40;80.32;;;32.17;;
36411;SDS011;22445;52.100;5.176;2023-02-15T07:09:06;78.28;;;32.40;;
36411;SDS011;22445;52.100;5.176;2023-02-15T07:11:31;74.70;;;31.63;;
36411;SDS011;22445;52.100;5.176;2023-02-15T07:14:15;84.03;;;33.65;;
36411;SDS011;22445;52.100;5.176;2023-02-15T07:16:41;80.97;;;33.65;;
36411;SDS011;22445;52.100;5.176;2023-02-15T07:19:06;90.18;;;35.03;;
36411;SDS011;22445;52.100;5.176;2023-02-15T07:21:32;84.07;;;37.85;;
36411;SDS011;22445;52.100;5.176;2023-02-15T07:23:59;98.20;;;38.70;;
36411;SDS011;22445;52.100;5.176;2023-02-15T07:26:24;95.80;;;39.42;;
36411;SDS011;22445;52.100;5.176;2023-02-15T07:28:50;104.68;;;43.42;;
36411;SDS011;22445;52.100;5.176;2023-02-15T07:31:16;103.78;;;41.65;;
36411;SDS011;22445;52.100;5.176;2023-02-15T07:33:41;101.40;;;42.53;;
36411;SDS011;22445;52.100;5.176;2023-02-15T07:36:07;102.97;;;45.05;;
36411;SDS011;22445;52.100;5.176;2023-02-15T07:38:37;104.25;;;42.60;;
36411;SDS011;22445;52.100;5.176;2023-02-15T07:41:04;103.75;;;44.50;;
36411;SDS011;22445;52.100;5.176;2023-02-15T07:43:35;107.10;;;45.42;;
36411;SDS011;22445;52.100;5.176;2023-02-15T07:46:02;106.75;;;45.47;;
36411;SDS011;22445;52.100;5.176;2023-02-15T07:48:29;103.78;;;44.42;;
36411;SDS011;22445;52.100;5.176;2023-02-15T07:50:58;98.68;;;44.70;;
36411;SDS011;22445;52.100;5.176;2023-02-15T07:53:24;86.65;;;43.38;;
36411;SDS011;22445;52.100;5.176;2023-02-15T07:55:49;84.78;;;41.78;;
36411;SDS011;22445;52.100;5.176;2023-02-15T07:58:15;85.53;;;41.92;;
36411;SDS011;22445;52.100;5.176;2023-02-15T08:00:41;79.47;;;41.20;;
36411;SDS011;22445;52.100;5.176;2023-02-15T08:03:29;76.35;;;39.25;;
36411;SDS011;22445;52.100;5.176;2023-02-15T08:05:56;68.40;;;36.92;;
36411;SDS011;22445;52.100;5.176;2023-02-15T08:08:23;68.18;;;36.70;;
36411;SDS011;22445;52.100;5.176;2023-02-15T08:11:01;62.72;;;34.55;;
36411;SDS011;22445;52.100;5.176;2023-02-15T08:13:49;50.55;;;28.95;;
36411;SDS011;22445;52.100;5.176;2023-02-15T08:22:07;44.30;;;26.77;;
36411;SDS011;22445;52.100;5.176;2023-02-15T08:24:35;35.70;;;23.35;;
36411;SDS011;22445;52.100;5.176;2023-02-15T08:27:05;35.95;;;21.25;;
36411;SDS011;22445;52.100;5.176;2023-02-15T08:29:31;30.92;;;20.33;;
36411;SDS011;22445;52.100;5.176;2023-02-15T08:31:58;32.75;;;20.52;;
36411;SDS011;22445;52.100;5.176;2023-02-15T08:34:27;38.90;;;21.33;;
36411;SDS011;22445;52.100;5.176;2023-02-15T08:36:54;31.08;;;20.35;;
36411;SDS011;22445;52.100;5.176;2023-02-15T08:39:20;30.35;;;19.30;;
36411;SDS011;22445;52.100;5.176;2023-02-15T08:41:46;32.03;;;20.13;;
36411;SDS011;22445;52.100;5.176;2023-02-15T08:44:13;32.47;;;21.75;;
36411;SDS011;22445;52.100;5.176;2023-02-15T08:46:41;31.63;;;21.10;;
36411;SDS011;22445;52.100;5.176;2023-02-15T08:49:08;30.38;;;19.52;;
36411;SDS011;22445;52.100;5.176;2023-02-15T08:51:34;32.42;;;21.33;;
36411;SDS011;22445;52.100;5.176;2023-02-15T08:54:02;32.92;;;20.88;;
36411;SDS011;22445;52.100;5.176;2023-02-15T08:56:32;34.03;;;21.40;;
36411;SDS011;22445;52.100;5.176;2023-02-15T08:58:59;32.53;;;20.65;;
36411;SDS011;22445;52.100;5.176;2023-02-15T09:01:26;29.45;;;20.65;;
36411;SDS011;22445;52.100;5.176;2023-02-15T09:04:00;32.30;;;21.92;;
36411;SDS011;22445;52.100;5.176;2023-02-15T09:06:27;31.85;;;20.73;;
36411;SDS011;22445;52.100;5.176;2023-02-15T09:08:53;32.72;;;21.20;;
36411;SDS011;22445;52.100;5.176;2023-02-15T09:11:21;27.02;;;19.80;;
36411;SDS011;22445;52.100;5.176;2023-02-15T09:14:34;31.98;;;20.45;;
36411;SDS011;22445;52.100;5.176;2023-02-15T09:16:38;32.42;;;20.90;;
36411;SDS011;22445;52.100;5.176;2023-02-15T09:19:05;33.17;;;21.70;;
36411;SDS011;22445;52.100;5.176;2023-02-15T09:21:31;30.98;;;21.25;;
36411;SDS011;22445;52.100;5.176;2023-02-15T09:24:02;29.95;;;21.75;;
36411;SDS011;22445;52.100;5.176;2023-02-15T09:26:30;32.47;;;21.05;;
36411;SDS011;22445;52.100;5.176;2023-02-15T09:28:58;32.35;;;21.90;;
36411;SDS011;22445;52.100;5.176;2023-02-15T09:31:47;34.13;;;20.88;;
36411;SDS011;22445;52.100;5.176;2023-02-15T09:34:14;29.83;;;22.08;;
36411;SDS011;22445;52.100;5.176;2023-02-15T09:36:43;34.67;;;22.20;;
36411;SDS011;22445;52.100;5.176;2023-02-15T09:39:16;34.13;;;20.25;;
36411;SDS011;22445;52.100;5.176;2023-02-15T09:54:22;28.20;;;19.80;;
36411;SDS011;22445;52.100;5.176;2023-02-15T09:57:14;32.92;;;20.77;;
36411;SDS011;22445;52.100;5.176;2023-02-15T10:02:45;31.10;;;21.98;;
36411;SDS011;22445;52.100;5.176;2023-02-15T10:08:32;24.17;;;18.98;;
36411;SDS011;22445;52.100;5.176;2023-02-15T10:11:41;26.23;;;20.15;;
36411;SDS011;22445;52.100;5.176;2023-02-15T10:21:52;26.40;;;20.00;;
36411;SDS011;22445;52.100;5.176;2023-02-15T10:27:48;24.73;;;19.00;;
36411;SDS011;22445;52.100;5.176;2023-02-15T10:30:15;29.77;;;19.58;;
36411;SDS011;22445;52.100;5.176;2023-02-15T10:32:48;27.88;;;20.95;;
36411;SDS011;22445;52.100;5.176;2023-02-15T10:35:33;23.35;;;18.67;;
36411;SDS011;22445;52.100;5.176;2023-02-15T10:57:12;25.20;;;20.20;;
36411;SDS011;22445;52.100;5.176;2023-02-15T10:59:36;25.73;;;20.88;;
36411;SDS011;22445;52.100;5.176;2023-02-15T11:02:33;29.02;;;21.25;;
36411;SDS011;22445;52.100;5.176;2023-02-15T11:11:59;27.40;;;21.83;;
36411;SDS011;22445;52.100;5.176;2023-02-15T11:17:27;27.55;;;21.27;;
36411;SDS011;22445;52.100;5.176;2023-02-15T11:23:20;29.70;;;21.48;;
36411;SDS011;22445;52.100;5.176;2023-02-15T11:25:59;31.00;;;22.00;;
36411;SDS011;22445;52.100;5.176;2023-02-15T11:28:34;30.30;;;23.05;;
36411;SDS011;22445;52.100;5.176;2023-02-15T11:31:11;30.33;;;22.33;;
36411;SDS011;22445;52.100;5.176;2023-02-15T11:33:40;28.95;;;21.75;;
36411;SDS011;22445;52.100;5.176;2023-02-15T11:36:18;30.20;;;21.45;;
36411;SDS011;22445;52.100;5.176;2023-02-15T11:38:46;27.80;;;22.40;;
36411;SDS011;22445;52.100;5.176;2023-02-15T11:41:15;29.65;;;21.20;;
36411;SDS011;22445;52.100;5.176;2023-02-15T11:46:49;31.23;;;23.27;;
36411;SDS011;22445;52.100;5.176;2023-02-15T11:49:22;31.77;;;24.00;;
36411;SDS011;22445;52.100;5.176;2023-02-15T11:51:49;29.05;;;23.10;;
36411;SDS011;22445;52.100;5.176;2023-02-15T11:54:19;31.52;;;23.05;;
36411;SDS011;22445;52.100;5.176;2023-02-15T11:56:49;31.75;;;24.70;;
36411;SDS011;22445;52.100;5.176;2023-02-15T11:59:20;28.08;;;21.95;;
36411;SDS011;22445;52.100;5.176;2023-02-15T12:01:51;30.02;;;22.95;;
36411;SDS011;22445;52.100;5.176;2023-02-15T12:04:29;33.30;;;22.85;;
36411;SDS011;22445;52.100;5.176;2023-02-15T12:07:03;32.47;;;23.27;;
36411;SDS011;22445;52.100;5.176;2023-02-15T12:12:26;30.77;;;23.33;;
36411;SDS011;22445;52.100;5.176;2023-02-15T12:14:54;32.60;;;24.23;;
36411;SDS011;22445;52.100;5.176;2023-02-15T12:17:22;31.60;;;23.17;;
36411;SDS011;22445;52.100;5.176;2023-02-15T12:19:49;31.98;;;24.02;;
36411;SDS011;22445;52.100;5.176;2023-02-15T12:22:38;29.27;;;24.30;;
36411;SDS011;22445;52.100;5.176;2023-02-15T12:25:04;30.48;;;22.80;;
36411;SDS011;22445;52.100;5.176;2023-02-15T12:28:18;28.67;;;23.30;;
36411;SDS011;22445;52.100;5.176;2023-02-15T12:34:12;30.35;;;25.38;;
36411;SDS011;22445;52.100;5.176;2023-02-15T12:40:11;30.27;;;25.15;;
36411;SDS011;22445;52.100;5.176;2023-02-15T12:42:45;29.25;;;24.60;;
36411;SDS011;22445;52.100;5.176;2023-02-15T12:48:12;34.95;;;25.90;;
36411;SDS011;22445;52.100;5.176;2023-02-15T12:50:43;28.77;;;23.90;;
36411;SDS011;22445;52.100;5.176;2023-02-15T12:53:30;31.88;;;26.27;;
36411;SDS011;22445;52.100;5.176;2023-02-15T12:55:58;31.75;;;24.58;;
36411;SDS011;22445;52.100;5.176;2023-02-15T12:58:26;31.33;;;25.52;;
36411;SDS011;22445;52.100;5.176;2023-02-15T13:01:28;34.13;;;26.67;;
36411;SDS011;22445;52.100;5.176;2023-02-15T13:03:59;33.85;;;27.48;;
36411;SDS011;22445;52.100;5.176;2023-02-15T13:06:27;32.45;;;26.05;;
36411;SDS011;22445;52.100;5.176;2023-02-15T13:08:54;35.95;;;25.65;;
36411;SDS011;22445;52.100;5.176;2023-02-15T13:11:30;33.17;;;25.60;;
36411;SDS011;22445;52.100;5.176;2023-02-15T13:14:01;31.90;;;25.05;;
36411;SDS011;22445;52.100;5.176;2023-02-15T13:16:35;31.60;;;24.77;;
36411;SDS011;22445;52.100;5.176;2023-02-15T13:19:04;33.30;;;26.15;;
36411;SDS011;22445;52.100;5.176;2023-02-15T13:21:35;33.33;;;26.30;;
36411;SDS011;22445;52.100;5.176;2023-02-15T13:24:04;32.30;;;26.80;;
36411;SDS011;22445;52.100;5.176;2023-02-15T13:26:41;32.15;;;26.15;;
36411;SDS011;22445;52.100;5.176;2023-02-15T13:29:12;33.58;;;25.88;;
36411;SDS011;22445;52.100;5.176;2023-02-15T13:31:42;32.22;;;25.38;;
36411;SDS011;22445;52.100;5.176;2023-02-15T13:34:10;32.53;;;25.48;;
36411;SDS011;22445;52.100;5.176;2023-02-15T13:36:48;34.33;;;26.25;;
36411;SDS011;22445;52.100;5.176;2023-02-15T13:39:51;30.75;;;24.80;;
36411;SDS011;22445;52.100;5.176;2023-02-15T13:42:25;32.22;;;25.42;;
36411;SDS011;22445;52.100;5.176;2023-02-15T13:45:21;34.47;;;24.77;;
36411;SDS011;22445;52.100;5.176;2023-02-15T14:00:47;36.53;;;26.83;;
36411;SDS011;22445;52.100;5.176;2023-02-15T14:03:56;36.13;;;26.23;;
36411;SDS011;22445;52.100;5.176;2023-02-15T14:22:25;38.50;;;25.80;;
36411;SDS011;22445;52.100;5.176;2023-02-15T14:28:04;37.72;;;27.20;;
36411;SDS011;22445;52.100;5.176;2023-02-15T14:30:36;34.85;;;25.65;;
36411;SDS011;22445;52.100;5.176;2023-02-15T14:33:07;39.20;;;26.67;;
36411;SDS011;22445;52.100;5.176;2023-02-15T14:35:45;38.20;;;26.98;;
36411;SDS011;22445;52.100;5.176;2023-02-15T14:38:13;38.80;;;27.15;;
36411;SDS011;22445;52.100;5.176;2023-02-15T14:41:04;36.72;;;26.63;;
36411;SDS011;22445;52.100;5.176;2023-02-15T14:46:50;37.25;;;27.13;;
36411;SDS011;22445;52.100;5.176;2023-02-15T14:49:24;35.33;;;25.30;;
36411;SDS011;22445;52.100;5.176;2023-02-15T14:57:24;33.90;;;25.25;;
36411;SDS011;22445;52.100;5.176;2023-02-15T14:59:53;35.08;;;24.83;;
36411;SDS011;22445;52.100;5.176;2023-02-15T15:02:27;32.97;;;24.67;;
36411;SDS011;22445;52.100;5.176;2023-02-15T15:05:19;32.97;;;25.40;;
36411;SDS011;22445;52.100;5.176;2023-02-15T15:10:44;29.85;;;24.15;;
36411;SDS011;22445;52.100;5.176;2023-02-15T15:22:32;38.70;;;25.02;;
36411;SDS011;22445;52.100;5.176;2023-02-15T15:25:09;33.95;;;25.40;;
36411;SDS011;22445;52.100;5.176;2023-02-15T15:33:35;40.63;;;27.92;;
36411;SDS011;22445;52.100;5.176;2023-02-15T15:45:38;35.90;;;25.55;;
36411;SDS011;22445;52.100;5.176;2023-02-15T15:48:32;41.63;;;27.50;;
36411;SDS011;22445;52.100;5.176;2023-02-15T15:51:00;39.72;;;28.05;;
36411;SDS011;22445;52.100;5.176;2023-02-15T15:53:29;39.03;;;27.08;;
36411;SDS011;22445;52.100;5.176;2023-02-15T15:56:00;38.83;;;27.75;;
36411;SDS011;22445;52.100;5.176;2023-02-15T15:58:29;38.42;;;27.67;;
36411;SDS011;22445;52.100;5.176;2023-02-15T16:01:01;40.25;;;28.38;;
36411;SDS011;22445;52.100;5.176;2023-02-15T16:03:29;39.22;;;26.58;;
36411;SDS011;22445;52.100;5.176;2023-02-15T16:05:55;38.45;;;27.00;;
36411;SDS011;22445;52.100;5.176;2023-02-15T16:11:16;37.25;;;26.50;;
36411;SDS011;22445;52.100;5.176;2023-02-15T16:13:47;38.67;;;26.27;;
36411;SDS011;22445;52.100;5.176;2023-02-15T16:16:13;40.55;;;28.00;;
36411;SDS011;22445;52.100;5.176;2023-02-15T16:18:44;39.47;;;26.15;;
36411;SDS011;22445;52.100;5.176;2023-02-15T16:21:16;39.70;;;27.27;;
36411;SDS011;22445;52.100;5.176;2023-02-15T16:33:11;42.53;;;28.38;;
36411;SDS011;22445;52.100;5.176;2023-02-15T16:35:38;40.65;;;26.95;;
36411;SDS011;22445;52.100;5.176;2023-02-15T16:38:08;40.97;;;27.15;;
36411;SDS011;22445;52.100;5.176;2023-02-15T16:40:41;40.95;;;26.67;;
36411;SDS011;22445;52.100;5.176;2023-02-15T16:43:23;45.42;;;27.92;;
36411;SDS011;22445;52.100;5.176;2023-02-15T16:45:50;42.63;;;26.30;;
36411;SDS011;22445;52.100;5.176;2023-02-15T16:48:20;40.40;;;27.23;;
36411;SDS011;22445;52.100;5.176;2023-02-15T16:50:50;44.40;;;28.27;;
36411;SDS011;22445;52.100;5.176;2023-02-15T16:53:20;43.67;;;28.20;;
36411;SDS011;22445;52.100;5.176;2023-02-15T16:55:50;41.08;;;28.00;;
36411;SDS011;22445;52.100;5.176;2023-02-15T16:58:17;48.65;;;28.58;;
36411;SDS011;22445;52.100;5.176;2023-02-15T17:00:48;45.15;;;26.42;;
36411;SDS011;22445;52.100;5.176;2023-02-15T17:06:01;40.88;;;26.58;;
36411;SDS011;22445;52.100;5.176;2023-02-15T17:08:35;45.88;;;30.85;;
36411;SDS011;22445;52.100;5.176;2023-02-15T17:11:12;44.72;;;30.52;;
36411;SDS011;22445;52.100;5.176;2023-02-15T17:16:54;40.03;;;28.52;;
36411;SDS011;22445;52.100;5.176;2023-02-15T17:22:24;42.55;;;28.17;;
36411;SDS011;22445;52.100;5.176;2023-02-15T17:25:01;43.40;;;29.80;;
36411;SDS011;22445;52.100;5.176;2023-02-15T17:27:29;44.25;;;30.00;;
36411;SDS011;22445;52.100;5.176;2023-02-15T17:29:59;43.35;;;30.50;;
36411;SDS011;22445;52.100;5.176;2023-02-15T17:32:27;42.72;;;29.60;;
36411;SDS011;22445;52.100;5.176;2023-02-15T17:35:07;42.58;;;30.48;;
36411;SDS011;22445;52.100;5.176;2023-02-15T17:37:43;45.50;;;30.25;;
36411;SDS011;22445;52.100;5.176;2023-02-15T17:40:16;46.22;;;31.65;;
36411;SDS011;22445;52.100;5.176;2023-02-15T17:42:45;47.00;;;31.90;;
36411;SDS011;22445;52.100;5.176;2023-02-15T17:45:10;40.95;;;30.70;;
36411;SDS011;22445;52.100;5.176;2023-02-15T17:47:36;48.78;;;30.73;;
36411;SDS011;22445;52.100;5.176;2023-02-15T17:50:04;42.13;;;31.02;;
36411;SDS011;22445;52.100;5.176;2023-02-15T17:52:30;47.58;;;31.50;;
36411;SDS011;22445;52.100;5.176;2023-02-15T17:54:56;44.88;;;31.67;;
36411;SDS011;22445;52.100;5.176;2023-02-15T17:57:40;43.78;;;31.02;;
36411;SDS011;22445;52.100;5.176;2023-02-15T18:00:06;47.33;;;29.38;;
36411;SDS011;22445;52.100;5.176;2023-02-15T18:02:51;43.00;;;30.67;;
36411;SDS011;22445;52.100;5.176;2023-02-15T18:05:36;41.08;;;29.38;;
36411;SDS011;22445;52.100;5.176;2023-02-15T18:08:22;45.47;;;30.98;;
36411;SDS011;22445;52.100;5.176;2023-02-15T18:11:09;42.00;;;29.52;;
36411;SDS011;22445;52.100;5.176;2023-02-15T18:13:54;44.15;;;29.50;;
36411;SDS011;22445;52.100;5.176;2023-02-15T18:16:22;49.03;;;31.45;;